Weather at Edmonton / St. Albert [CLOSED]

Public forecast

Using degrees Celsius for public forecast. Weather courtesy of forecast.io.

Closest aviation weather report (METAR) to Edmonton / St. Albert

Closest report is Edmonton / Villeneuve Airport, 5.9 nm (10.9 km) WSW. Retrieved 2021/01/17 05:00 UTC (17 minutes ago):

CZVL 170500Z AUTO 25004KT 9SM BKN150 BKN170 M00/M05 A2996 RMK SLP177

Closest aviation forecast (TAF) to Edmonton / St. Albert

Closest forecast is Edmonton / Villeneuve Airport, 5.9 nm (10.9 km) WSW. Retrieved 2021-01-17 00:00 UTC (5 hours ago):

TAF CZVL 162338Z 1700/1712 27006KT P6SM FEW240 FM170400 22004KT P6SM SCT080 BKN200 FM170900 20004KT P6SM OVC070 RMK FCST BASED ON AUTO OBS NXT FCST BY 170600Z